Sioux Lookout Airport
CYXL : now visible

Airfield :











YOU CAN JOIN US ON...

 
LOGIN :

Register | Disclaimer

   EN    FR    IT 

 









Legend :    VFR   Marginal VFR   IFR   Intensive IFR   Very Intensive IFR
Visi :
Ceiling :
>= 8 km
>= 3000ft
5 to 8 km
1000 to 3000 ft
1500m to 5 km
500 to 1000 ft
800 to 1500m
200 to 500 ft
< 800m
< 200 ft
Symbols :   Thunderstorms  Fog  Heavy snow  Heavy precipitations  Wind > 20 kt






- Airport Elevation : 1258 ft
- IATA code : YXL


CYXL - Sioux Lookout

CURRENT METAR :
  • 291100Z 18003KT 15SM FEW180 M33/M36 A3020 RMK AC2 FROIN SLP282

EXPIRED METARs :
  • 291000Z 17004KT 15SM SKC M34/M37 A3019 RMK FROIN SLP277
  • 290900Z 00000KT 15SM SKC M33/M36 A3018 RMK FROIN SLP275
  • 290800Z VRB02KT 15SM SKC M32/M35 A3018 RMK FROIN SLP274
  • 290700Z 17002KT 15SM SKC M32/M35 A3017 RMK FROIN SLP271

TAF TAF CYXL
Valid from the 29 at 08:00 until the 29 at 20:00 UTC


290740Z 2908/2920 VRB03KT P6SM SKC
BECMG 2918/2920 12005KT BKN120 RMK NXT FCST BY 291400Z
CZWG FIR / North America



MET'MAP, your aeronautical weather chart ! - Copyright ORBIFLY December 2007 - Disclaimer

ORBIFLY MET'MAP TEAM :

Programming & Development : Alexandra Zaïnal
Original concept : Baudouin d'Aumeries
Technical & hardware support : Manuel Goepfert
Assistance : Marc-Olivier Méhu




SOURCES & CREDITS :

   NOAA       Earth
Advisory